createdAt,value
2023-05-09T00:01:18.122Z,38.90
2023-05-09T00:03:44.585Z,33.15
2023-05-09T00:06:11.649Z,32.58
2023-05-09T00:08:38.200Z,33.78
2023-05-09T00:19:41.902Z,37.25
2023-05-09T00:22:09.322Z,35.13
2023-05-09T00:24:35.849Z,36.03
2023-05-09T00:27:02.299Z,35.50
2023-05-09T00:29:28.789Z,32.22
2023-05-09T00:31:55.397Z,38.58
2023-05-09T00:34:21.952Z,41.38
2023-05-09T00:36:49.835Z,36.85
2023-05-09T00:39:16.373Z,36.13
2023-05-09T00:41:42.872Z,37.70
2023-05-09T00:44:09.418Z,42.92
2023-05-09T00:46:36.147Z,38.45
2023-05-09T00:49:02.634Z,40.20
2023-05-09T00:51:29.317Z,41.65
2023-05-09T00:53:56.206Z,40.03
2023-05-09T00:56:22.775Z,40.15
2023-05-09T00:58:49.560Z,40.92
2023-05-09T01:01:16.778Z,38.53
2023-05-09T01:03:43.768Z,36.60
2023-05-09T01:06:22.815Z,36.67
2023-05-09T01:09:10.562Z,38.05
2023-05-09T01:11:44.234Z,34.25
2023-05-09T01:14:41.737Z,38.38
2023-05-09T01:17:16.122Z,35.28
2023-05-09T01:20:13.229Z,39.35
2023-05-09T01:22:46.800Z,35.28
2023-05-09T01:25:51.968Z,34.08
2023-05-09T01:28:49.794Z,38.92
2023-05-09T01:31:17.231Z,39.80
2023-05-09T01:33:46.764Z,38.03
2023-05-09T01:36:17.334Z,40.13
2023-05-09T01:38:47.373Z,37.33
2023-05-09T01:41:16.872Z,35.83
2023-05-09T01:43:46.261Z,37.20
2023-05-09T01:46:14.157Z,38.42
2023-05-09T01:48:42.624Z,37.75
2023-05-09T01:51:09.921Z,38.55
2023-05-09T01:53:36.837Z,37.40
2023-05-09T01:56:04.650Z,36.83
2023-05-09T01:58:33.600Z,38.28
2023-05-09T02:01:01.510Z,40.33
2023-05-09T02:03:28.717Z,41.75
2023-05-09T02:05:56.715Z,41.58
2023-05-09T02:08:25.808Z,38.88
2023-05-09T02:10:53.133Z,36.35
2023-05-09T02:13:19.712Z,43.30
2023-05-09T02:15:47.277Z,42.20
2023-05-09T02:18:13.849Z,37.33
2023-05-09T02:20:40.538Z,39.30
2023-05-09T02:23:07.108Z,43.17
2023-05-09T02:25:34.513Z,38.75
2023-05-09T02:28:02.489Z,38.83
2023-05-09T02:30:33.431Z,37.35
2023-05-09T02:33:07.527Z,39.22
2023-05-09T02:35:36.016Z,36.67
2023-05-09T02:38:03.216Z,40.55
2023-05-09T02:40:30.538Z,37.17
2023-05-09T02:42:57.471Z,39.38
2023-05-09T02:45:24.068Z,40.17
2023-05-09T02:47:50.682Z,38.78
2023-05-09T02:50:17.570Z,35.75
2023-05-09T02:52:44.486Z,37.42
2023-05-09T02:55:10.958Z,37.80
2023-05-09T02:57:37.558Z,37.72
2023-05-09T03:00:08.989Z,38.13
2023-05-09T03:02:36.745Z,41.70
2023-05-09T03:05:03.388Z,43.65
2023-05-09T03:07:31.488Z,40.72
2023-05-09T03:09:58.010Z,37.45
2023-05-09T03:12:24.574Z,33.67
2023-05-09T03:14:51.073Z,39.22
2023-05-09T03:17:21.118Z,39.65
2023-05-09T03:19:48.546Z,40.30
2023-05-09T03:22:15.689Z,41.90
2023-05-09T03:24:42.253Z,37.35
2023-05-09T03:27:08.921Z,35.90
2023-05-09T03:29:35.399Z,37.15
2023-05-09T03:32:01.957Z,37.53
2023-05-09T03:34:28.439Z,38.10
2023-05-09T03:36:54.965Z,40.58
2023-05-09T03:39:21.498Z,35.22
2023-05-09T03:41:48.797Z,37.97
2023-05-09T03:44:15.478Z,38.95
2023-05-09T03:46:42.063Z,37.53
2023-05-09T03:49:12.247Z,41.33
2023-05-09T03:51:41.326Z,37.65
2023-05-09T03:54:08.564Z,40.40
2023-05-09T03:56:35.121Z,32.15
2023-05-09T03:59:01.591Z,33.50
2023-05-09T04:01:28.159Z,34.83
2023-05-09T04:03:54.775Z,33.83
2023-05-09T04:06:21.363Z,32.15
2023-05-09T04:08:47.879Z,32.08
2023-05-09T04:11:14.386Z,34.80
2023-05-09T04:13:40.945Z,33.42
2023-05-09T04:16:09.518Z,33.30
2023-05-09T04:18:36.678Z,30.13
2023-05-09T04:21:03.777Z,30.48
2023-05-09T04:23:30.313Z,31.88
2023-05-09T04:25:56.997Z,28.35
2023-05-09T04:28:23.612Z,30.35
2023-05-09T04:30:50.235Z,31.42
2023-05-09T04:33:17.048Z,27.30
2023-05-09T04:35:43.496Z,29.35
2023-05-09T04:38:09.941Z,29.55
2023-05-09T04:40:36.457Z,28.92
2023-05-09T04:43:03.731Z,33.47
2023-05-09T04:45:30.303Z,27.33
2023-05-09T04:47:56.779Z,27.58
2023-05-09T04:50:23.353Z,26.27
2023-05-09T04:52:49.887Z,29.08
2023-05-09T04:55:16.698Z,24.25
2023-05-09T04:57:43.339Z,24.25
2023-05-09T05:00:11.920Z,26.77
2023-05-09T05:02:38.953Z,23.58
2023-05-09T05:05:18.030Z,23.05
2023-05-09T05:07:50.814Z,23.27
2023-05-09T05:10:17.338Z,24.15
2023-05-09T05:12:43.984Z,26.27
2023-05-09T05:15:11.081Z,22.83
2023-05-09T05:17:37.566Z,21.88
2023-05-09T05:20:06.655Z,18.23
2023-05-09T05:22:33.252Z,21.63
2023-05-09T05:24:59.770Z,20.70
2023-05-09T05:27:26.216Z,22.20
2023-05-09T05:29:52.681Z,20.80
2023-05-09T05:32:19.494Z,19.52
2023-05-09T05:34:46.130Z,20.75
2023-05-09T05:37:12.675Z,18.75
2023-05-09T05:39:39.139Z,17.38
2023-05-09T05:42:05.714Z,20.00
2023-05-09T05:44:32.290Z,20.25
2023-05-09T05:46:58.757Z,17.65
2023-05-09T05:49:25.336Z,19.63
2023-05-09T05:51:51.834Z,21.85
2023-05-09T05:54:18.284Z,19.23
2023-05-09T05:56:44.750Z,18.42
2023-05-09T05:59:13.240Z,17.20
2023-05-09T06:04:06.713Z,18.83
2023-05-09T06:06:33.509Z,17.45
2023-05-09T06:09:00.023Z,17.25
2023-05-09T06:11:26.482Z,16.02
2023-05-09T06:13:53.006Z,18.42
2023-05-09T06:16:20.674Z,18.15
2023-05-09T06:18:47.943Z,16.92
2023-05-09T06:21:14.473Z,19.20
2023-05-09T06:23:56.884Z,17.00
2023-05-09T06:26:27.470Z,18.52
2023-05-09T06:28:53.976Z,20.17
2023-05-09T06:31:20.556Z,17.48
2023-05-09T06:33:47.150Z,16.20
2023-05-09T06:36:13.653Z,20.23
2023-05-09T06:38:40.170Z,16.70
2023-05-09T06:41:06.627Z,16.90
2023-05-09T06:43:33.101Z,16.90
2023-05-09T06:45:59.620Z,17.80
2023-05-09T06:48:26.805Z,15.93
2023-05-09T06:50:53.630Z,19.38
2023-05-09T06:53:20.082Z,18.88
2023-05-09T06:55:46.679Z,20.13
2023-05-09T06:58:13.405Z,17.08
2023-05-09T07:00:39.853Z,17.02
2023-05-09T07:03:09.310Z,17.50
2023-05-09T07:05:36.144Z,17.75
2023-05-09T07:08:02.775Z,17.35
2023-05-09T07:10:29.394Z,16.55
2023-05-09T07:12:55.916Z,14.02
2023-05-09T07:15:36.780Z,15.90
2023-05-09T07:18:06.842Z,19.88
2023-05-09T07:20:33.463Z,18.20
2023-05-09T07:23:00.135Z,16.00
2023-05-09T07:25:26.618Z,13.88
2023-05-09T07:27:53.109Z,15.43
2023-05-09T07:30:19.670Z,15.82
2023-05-09T07:32:46.729Z,15.18
2023-05-09T07:35:13.514Z,15.75
2023-05-09T07:37:40.804Z,16.48
2023-05-09T07:40:08.051Z,15.23
2023-05-09T07:42:34.717Z,15.48
2023-05-09T07:45:01.361Z,16.10
2023-05-09T07:47:27.903Z,18.45
2023-05-09T07:49:57.598Z,15.18
2023-05-09T07:52:24.115Z,15.52
2023-05-09T07:54:50.691Z,16.15
2023-05-09T07:57:17.276Z,14.52
2023-05-09T07:59:43.856Z,15.98
2023-05-09T08:02:10.595Z,14.52
2023-05-09T08:04:39.061Z,14.07
2023-05-09T08:07:05.638Z,14.85
2023-05-09T08:09:32.119Z,15.02
2023-05-09T08:11:58.617Z,15.43
2023-05-09T08:14:25.341Z,14.00
2023-05-09T08:16:51.862Z,15.65
2023-05-09T08:19:18.363Z,12.43
2023-05-09T08:21:44.859Z,14.25
2023-05-09T08:24:11.352Z,14.05
2023-05-09T08:26:37.897Z,13.98
2023-05-09T08:29:04.379Z,14.23
2023-05-09T08:31:31.150Z,14.10
2023-05-09T08:33:57.614Z,12.43
2023-05-09T08:36:24.170Z,12.25
2023-05-09T08:38:50.630Z,12.88
2023-05-09T08:41:17.229Z,12.85
2023-05-09T08:43:44.421Z,11.95
2023-05-09T08:46:11.732Z,12.43
2023-05-09T08:48:39.649Z,12.40
2023-05-09T08:51:07.463Z,11.45
2023-05-09T08:53:34.566Z,14.43
2023-05-09T08:56:02.761Z,7.70
2023-05-09T08:58:30.510Z,9.35
2023-05-09T09:00:57.019Z,9.35
2023-05-09T09:03:24.291Z,7.80
2023-05-09T09:05:52.643Z,7.90
2023-05-09T09:08:19.945Z,8.35
2023-05-09T09:10:47.544Z,8.77
2023-05-09T09:13:15.345Z,7.72
2023-05-09T09:15:45.082Z,7.75
2023-05-09T09:18:29.772Z,6.85
2023-05-09T09:21:09.006Z,8.82
2023-05-09T09:23:39.003Z,9.02
2023-05-09T09:26:05.619Z,9.98
2023-05-09T09:28:32.885Z,7.88
2023-05-09T09:30:59.446Z,7.63
2023-05-09T09:33:28.489Z,8.15
2023-05-09T09:35:56.706Z,6.82
2023-05-09T09:38:24.520Z,9.02
2023-05-09T09:40:58.807Z,7.60
2023-05-09T09:43:29.884Z,9.05
2023-05-09T09:45:57.691Z,6.07
2023-05-09T09:48:33.628Z,7.45
2023-05-09T09:51:18.787Z,6.15
2023-05-09T09:53:45.514Z,6.32
2023-05-09T09:56:12.096Z,6.90
2023-05-09T09:58:39.080Z,5.57
2023-05-09T10:01:10.652Z,6.63
2023-05-09T10:03:42.478Z,5.45
2023-05-09T10:06:14.087Z,6.45
2023-05-09T10:08:41.769Z,7.18
2023-05-09T10:11:10.115Z,5.68
2023-05-09T10:13:38.394Z,8.38
2023-05-09T10:16:06.270Z,6.57
2023-05-09T10:18:33.882Z,6.32
2023-05-09T10:21:06.424Z,6.63
2023-05-09T10:23:37.333Z,7.88
2023-05-09T10:26:25.584Z,5.60
2023-05-09T10:28:55.528Z,8.40
2023-05-09T10:31:32.581Z,8.75
2023-05-09T10:34:02.136Z,6.32
2023-05-09T10:36:28.893Z,6.60
2023-05-09T10:38:56.289Z,5.97
2023-05-09T10:41:23.638Z,8.25
2023-05-09T10:43:50.454Z,7.53
2023-05-09T10:46:17.807Z,7.85
2023-05-09T10:48:46.690Z,7.05
2023-05-09T10:51:13.795Z,6.72
2023-05-09T10:53:42.660Z,6.22
2023-05-09T10:56:09.480Z,7.75
2023-05-09T10:58:40.834Z,6.63
2023-05-09T11:01:08.135Z,6.80
2023-05-09T11:03:55.630Z,6.00
2023-05-09T11:06:52.412Z,5.63
2023-05-09T11:09:39.048Z,5.43
2023-05-09T11:12:05.786Z,5.35
2023-05-09T11:14:39.957Z,7.68
2023-05-09T11:17:09.226Z,6.10
2023-05-09T11:19:58.193Z,6.43
2023-05-09T11:22:37.714Z,6.75
2023-05-09T11:25:05.925Z,7.97
2023-05-09T11:27:44.128Z,6.43
2023-05-09T11:30:16.271Z,6.35
2023-05-09T11:32:55.467Z,5.88
2023-05-09T11:35:23.541Z,6.40
2023-05-09T11:38:04.812Z,8.18
2023-05-09T11:40:32.717Z,6.63
2023-05-09T11:43:00.990Z,5.70
2023-05-09T11:45:32.545Z,6.75
2023-05-09T11:48:01.077Z,6.95
2023-05-09T11:52:54.972Z,6.57
2023-05-09T11:55:22.905Z,6.05
2023-05-09T11:57:52.207Z,6.25
2023-05-09T12:00:22.849Z,7.15
2023-05-09T12:02:51.048Z,5.40
2023-05-09T12:05:19.534Z,5.65
2023-05-09T12:07:47.137Z,8.88
2023-05-09T12:10:20.049Z,5.43
2023-05-09T12:12:48.812Z,6.47
2023-05-09T12:15:17.118Z,5.95
2023-05-09T12:17:45.582Z,6.00
2023-05-09T12:20:12.785Z,5.13
2023-05-09T12:22:43.409Z,5.57
2023-05-09T12:25:11.839Z,5.85
2023-05-09T12:27:39.472Z,6.35
2023-05-09T12:30:10.908Z,6.10
2023-05-09T12:32:40.061Z,6.32
2023-05-09T12:35:09.521Z,5.53
2023-05-09T12:37:36.198Z,6.40
2023-05-09T12:40:15.182Z,5.57
2023-05-09T12:42:46.085Z,5.85
2023-05-09T12:45:13.165Z,5.60
2023-05-09T12:47:41.806Z,5.70
2023-05-09T12:50:12.143Z,5.45
2023-05-09T12:55:14.153Z,5.70
2023-05-09T12:57:41.867Z,5.93
2023-05-09T13:00:10.238Z,6.22
2023-05-09T13:02:39.870Z,5.50
2023-05-09T13:05:07.673Z,4.75
2023-05-09T13:07:46.009Z,5.13
2023-05-09T13:10:18.430Z,5.00
2023-05-09T13:12:46.969Z,5.35
2023-05-09T13:15:14.242Z,5.57
2023-05-09T13:17:41.246Z,5.25
2023-05-09T13:20:08.666Z,5.10
2023-05-09T13:22:35.203Z,6.07
2023-05-09T13:25:01.867Z,4.13
2023-05-09T13:27:28.380Z,4.35
2023-05-09T13:29:54.885Z,4.95
2023-05-09T13:32:21.548Z,4.50
2023-05-09T13:34:48.037Z,4.50
2023-05-09T13:37:14.534Z,6.80
2023-05-09T13:39:41.025Z,5.90
2023-05-09T13:42:07.791Z,6.65
2023-05-09T13:44:34.384Z,5.85
2023-05-09T13:47:00.927Z,5.75
2023-05-09T13:49:30.259Z,4.38
2023-05-09T13:51:57.266Z,4.65
2023-05-09T13:54:23.790Z,4.95
2023-05-09T13:56:51.265Z,4.20
2023-05-09T13:59:17.764Z,4.43
2023-05-09T14:01:44.341Z,4.63
2023-05-09T14:04:11.012Z,4.63
2023-05-09T14:06:37.776Z,5.03
2023-05-09T14:09:04.380Z,5.00
2023-05-09T14:11:31.084Z,4.70
2023-05-09T14:13:57.613Z,5.57
2023-05-09T14:16:24.317Z,5.20
2023-05-09T14:18:50.829Z,4.43
2023-05-09T14:21:17.352Z,6.20
2023-05-09T14:23:43.848Z,4.72
2023-05-09T14:26:10.442Z,5.88
2023-05-09T14:28:38.217Z,5.15
2023-05-09T14:31:04.809Z,3.45
2023-05-09T14:33:32.521Z,3.30
2023-05-09T14:36:01.204Z,4.93
2023-05-09T14:38:27.725Z,4.93
2023-05-09T14:40:54.398Z,4.63
2023-05-09T14:43:22.275Z,4.35
2023-05-09T14:45:48.795Z,3.22
2023-05-09T14:48:16.232Z,3.22
2023-05-09T14:50:42.803Z,4.13
2023-05-09T14:53:11.050Z,2.80
2023-05-09T14:55:37.504Z,8.23
2023-05-09T14:58:04.011Z,3.50
2023-05-09T15:00:30.551Z,2.92
2023-05-09T15:02:57.508Z,3.33
2023-05-09T15:05:24.282Z,3.42
2023-05-09T15:07:50.935Z,3.85
2023-05-09T15:10:17.770Z,3.83
2023-05-09T15:12:44.815Z,3.55
2023-05-09T15:15:15.784Z,4.22
2023-05-09T15:17:44.072Z,4.68
2023-05-09T15:20:12.275Z,4.32
2023-05-09T15:22:38.929Z,3.80
2023-05-09T15:25:06.400Z,3.70
2023-05-09T15:27:33.150Z,3.80
2023-05-09T15:30:00.400Z,3.53
2023-05-09T15:32:26.979Z,5.28
2023-05-09T15:34:53.489Z,3.55
2023-05-09T15:37:20.101Z,3.13
2023-05-09T15:39:46.643Z,3.22
2023-05-09T15:42:14.875Z,4.68
2023-05-09T15:44:42.276Z,3.20
2023-05-09T15:47:09.875Z,3.10
2023-05-09T15:49:37.028Z,3.25
2023-05-09T15:52:05.314Z,3.63
2023-05-09T15:54:33.098Z,3.22
2023-05-09T15:56:59.701Z,4.03
2023-05-09T15:59:27.263Z,3.00
2023-05-09T16:01:54.954Z,3.85
2023-05-09T16:04:22.144Z,3.88
2023-05-09T16:06:49.018Z,2.65
2023-05-09T16:09:15.711Z,2.95
2023-05-09T16:11:42.889Z,3.13
2023-05-09T16:14:11.794Z,2.92
2023-05-09T16:16:39.606Z,3.20
2023-05-09T16:19:07.210Z,4.18
2023-05-09T16:21:33.773Z,3.15
2023-05-09T16:24:02.946Z,3.10
2023-05-09T16:26:29.459Z,2.28
2023-05-09T16:28:56.146Z,2.40
2023-05-09T16:31:26.471Z,2.63
2023-05-09T16:33:54.200Z,4.47
2023-05-09T16:36:21.293Z,2.28
2023-05-09T16:38:48.151Z,2.67
2023-05-09T16:41:14.760Z,2.55
2023-05-09T16:43:41.509Z,3.10
2023-05-09T16:46:08.162Z,2.50
2023-05-09T16:48:34.719Z,2.50
2023-05-09T16:51:01.322Z,2.65
2023-05-09T16:53:28.170Z,4.00
2023-05-09T16:55:55.036Z,2.80
2023-05-09T16:58:21.600Z,2.75
2023-05-09T17:00:48.359Z,2.70
2023-05-09T17:03:14.935Z,2.70
2023-05-09T17:05:41.454Z,3.72
2023-05-09T17:08:08.099Z,3.03
2023-05-09T17:10:37.039Z,3.30
2023-05-09T17:13:08.487Z,2.90
2023-05-09T17:15:35.081Z,2.78
2023-05-09T17:18:02.286Z,3.00
2023-05-09T17:20:28.977Z,3.95
2023-05-09T17:22:56.393Z,2.90
2023-05-09T17:25:23.106Z,4.00
2023-05-09T17:27:49.544Z,2.30
2023-05-09T17:30:16.482Z,3.00
2023-05-09T17:32:43.280Z,3.60
2023-05-09T17:35:10.153Z,2.75
2023-05-09T17:37:36.631Z,2.67
2023-05-09T17:40:05.214Z,2.80
2023-05-09T17:42:32.308Z,4.50
2023-05-09T17:44:58.771Z,3.40
2023-05-09T17:47:25.361Z,3.55
2023-05-09T17:49:52.103Z,4.32
2023-05-09T17:52:18.664Z,4.55
2023-05-09T17:54:45.241Z,5.97
2023-05-09T17:57:11.719Z,4.97
2023-05-09T17:59:40.577Z,4.57
2023-05-09T18:04:34.654Z,3.88
2023-05-09T18:07:01.230Z,5.45
2023-05-09T18:09:28.120Z,4.13
2023-05-09T18:11:54.648Z,4.25
2023-05-09T18:14:21.337Z,4.50
2023-05-09T18:16:47.842Z,4.38
2023-05-09T18:19:14.303Z,5.32
2023-05-09T18:21:40.961Z,4.18
2023-05-09T18:24:09.179Z,4.47
2023-05-09T18:26:35.739Z,4.53
2023-05-09T18:29:02.215Z,3.92
2023-05-09T18:31:29.465Z,4.30
2023-05-09T18:33:56.364Z,5.22
2023-05-09T18:36:23.146Z,3.35
2023-05-09T18:38:49.592Z,4.05
2023-05-09T18:41:17.282Z,5.28
2023-05-09T18:43:46.687Z,3.78
2023-05-09T18:46:17.708Z,3.95
2023-05-09T18:48:45.403Z,4.95
2023-05-09T18:51:12.195Z,4.03
2023-05-09T18:53:38.986Z,3.90
2023-05-09T18:56:05.565Z,5.03
2023-05-09T18:58:32.446Z,4.28
2023-05-09T19:00:59.264Z,4.22
2023-05-09T19:03:27.160Z,4.85
2023-05-09T19:05:54.056Z,4.45
2023-05-09T19:08:20.818Z,6.93
2023-05-09T19:10:47.476Z,6.93
2023-05-09T19:13:16.086Z,7.30
2023-05-09T19:15:43.114Z,5.53
2023-05-09T19:18:09.693Z,5.45
2023-05-09T19:20:48.764Z,6.40
2023-05-09T19:23:15.582Z,5.95
2023-05-09T19:25:42.112Z,6.22
2023-05-09T19:28:08.604Z,6.07
2023-05-09T19:30:35.939Z,5.63
2023-05-09T19:33:02.504Z,5.38
2023-05-09T19:35:29.117Z,5.15
2023-05-09T19:37:55.664Z,4.93
2023-05-09T19:40:22.180Z,5.88
2023-05-09T19:42:48.824Z,5.65
2023-05-09T19:45:15.503Z,5.50
2023-05-09T19:47:42.611Z,6.00
2023-05-09T19:50:09.868Z,4.65
2023-05-09T19:52:37.224Z,4.43
2023-05-09T19:55:04.396Z,4.47
2023-05-09T19:57:30.954Z,4.95
2023-05-09T19:59:58.055Z,4.78
2023-05-09T20:02:24.756Z,4.35
2023-05-09T20:04:51.294Z,5.68
2023-05-09T20:07:18.138Z,3.53
2023-05-09T20:09:44.663Z,4.07
2023-05-09T20:12:11.400Z,3.75
2023-05-09T20:14:37.986Z,3.60
2023-05-09T20:17:05.384Z,5.07
2023-05-09T20:19:33.116Z,5.35
2023-05-09T20:22:01.213Z,5.75
2023-05-09T20:24:28.614Z,4.57
2023-05-09T20:26:55.224Z,5.90
2023-05-09T20:29:22.982Z,5.78
2023-05-09T20:31:49.553Z,3.95
2023-05-09T20:34:17.900Z,3.83
2023-05-09T20:36:48.366Z,4.22
2023-05-09T20:39:17.663Z,4.47
2023-05-09T20:41:48.358Z,3.20
2023-05-09T20:44:16.721Z,4.82
2023-05-09T20:46:44.797Z,3.97
2023-05-09T20:49:11.679Z,3.70
2023-05-09T20:51:38.575Z,6.00
2023-05-09T20:54:05.854Z,3.72
2023-05-09T20:56:33.598Z,3.60
2023-05-09T20:59:01.095Z,4.20
2023-05-09T21:01:27.635Z,5.20
2023-05-09T21:03:54.184Z,4.10
2023-05-09T21:06:20.665Z,4.50
2023-05-09T21:08:47.140Z,6.28
2023-05-09T21:11:13.794Z,5.75
2023-05-09T21:13:40.281Z,4.65
2023-05-09T21:16:06.721Z,6.88
2023-05-09T21:18:33.315Z,6.03
2023-05-09T21:21:06.040Z,5.75
2023-05-09T21:23:32.516Z,5.57
2023-05-09T21:25:58.947Z,5.25
2023-05-09T21:28:25.546Z,5.57
2023-05-09T21:30:53.166Z,8.20
2023-05-09T21:33:28.620Z,5.40
2023-05-09T21:35:55.156Z,4.93
2023-05-09T21:38:21.617Z,6.38
2023-05-09T21:40:51.415Z,5.35
2023-05-09T21:43:18.351Z,5.85
2023-05-09T21:45:45.399Z,6.15
2023-05-09T21:48:12.290Z,5.82
2023-05-09T21:50:41.719Z,6.07
2023-05-09T21:53:08.204Z,6.32
2023-05-09T21:55:34.737Z,6.78
2023-05-09T21:58:01.265Z,6.53
2023-05-09T22:00:27.720Z,6.38
2023-05-09T22:02:54.318Z,6.40
2023-05-09T22:05:20.919Z,7.28
2023-05-09T22:07:47.380Z,8.80
2023-05-09T22:10:14.137Z,7.25
2023-05-09T22:12:40.675Z,7.15
2023-05-09T22:15:07.713Z,8.77
2023-05-09T22:17:34.246Z,10.13
2023-05-09T22:20:00.768Z,7.82
2023-05-09T22:22:27.455Z,8.50
2023-05-09T22:24:53.990Z,10.48
2023-05-09T22:27:20.755Z,9.63
2023-05-09T22:29:47.307Z,9.15
2023-05-09T22:32:14.392Z,10.60
2023-05-09T22:34:41.083Z,11.57
2023-05-09T22:37:07.646Z,16.02
2023-05-09T22:39:34.132Z,10.93
2023-05-09T22:42:02.445Z,12.45
2023-05-09T22:44:28.930Z,15.07
2023-05-09T22:46:55.407Z,13.55
2023-05-09T22:49:22.115Z,11.82
2023-05-09T22:51:48.608Z,14.68
2023-05-09T22:54:17.870Z,11.57
2023-05-09T22:56:44.391Z,12.15
2023-05-09T22:59:10.841Z,13.77
2023-05-09T23:01:37.349Z,17.00
2023-05-09T23:04:03.821Z,12.75
2023-05-09T23:06:31.016Z,10.75
2023-05-09T23:08:57.482Z,11.77
2023-05-09T23:11:24.430Z,12.60
2023-05-09T23:13:50.955Z,11.30
2023-05-09T23:16:17.448Z,12.07
2023-05-09T23:18:44.121Z,11.77
2023-05-09T23:21:10.857Z,11.73
2023-05-09T23:23:37.372Z,12.25
2023-05-09T23:26:03.872Z,11.68
2023-05-09T23:28:30.311Z,11.10
2023-05-09T23:30:56.807Z,12.82
2023-05-09T23:33:23.464Z,12.63
2023-05-09T23:35:50.067Z,12.77
2023-05-09T23:38:17.074Z,10.73
2023-05-09T23:40:46.003Z,13.27
2023-05-09T23:45:39.853Z,11.75
2023-05-09T23:48:07.597Z,11.98
2023-05-09T23:50:34.433Z,11.77
2023-05-09T23:53:00.924Z,14.10
2023-05-09T23:55:27.824Z,14.52
2023-05-09T23:57:54.402Z,12.48
